Time;durP1;ratioP1;P1;durP2;ratioP2;P2;SDS_P1;SDS_P2;PMS_P1;PMS_P2;Temp;Humidity;BMP_temperature;BMP_pressure;BME280_temperature;BME280_humidity;BME280_pressure;Samples;Min_cycle;Max_cycle;Signal;HPM_P1;HPM_P2
2021/10/02 00:34:21;;;;;;;1.70;1.10;;;;;;;14.01;100.00;100596.94;4962165;28;20591;-75
2021/10/02 00:44:56;;;;;;;2.33;1.10;;;;;;;14.04;100.00;100597.19;4980644;28;20575;-74
2021/10/02 00:47:22;;;;;;;2.20;1.17;;;;;;;14.14;100.00;100582.56;4978497;28;20703;-74
2021/10/02 00:49:48;;;;;;;1.60;1.10;;;;;;;14.24;100.00;100583.22;4977921;28;20212;-74
2021/10/02 00:52:19;;;;;;;2.80;1.07;;;;;;;14.26;100.00;100579.06;4938102;28;20222;-73
2021/10/02 00:54:49;;;;;;;1.03;1.00;;;;;;;14.27;100.00;100575.22;4939634;28;20182;-76
2021/10/02 00:57:18;;;;;;;1.73;1.02;;;;;;;14.33;100.00;100579.50;4962411;28;20260;-75
2021/10/02 00:59:45;;;;;;;1.92;0.98;;;;;;;14.21;100.00;100574.78;4946049;28;20201;-76
2021/10/02 01:02:18;;;;;;;2.47;1.17;;;;;;;14.32;100.00;100577.06;4974901;28;20676;-76
2021/10/02 01:04:56;;;;;;;2.20;1.10;;;;;;;14.34;100.00;100581.13;4958684;28;20292;-76
2021/10/02 01:07:41;;;;;;;2.40;1.20;;;;;;;14.39;100.00;100572.84;4961992;28;20716;-76
2021/10/02 01:10:16;;;;;;;1.80;1.00;;;;;;;14.41;100.00;100581.56;4993622;28;20204;-76
2021/10/02 01:13:00;;;;;;;3.08;1.20;;;;;;;14.41;100.00;100581.56;4988729;28;20181;-75
2021/10/02 01:15:35;;;;;;;1.60;1.00;;;;;;;14.45;100.00;100576.28;4973765;28;20221;-76
2021/10/02 01:18:22;;;;;;;1.73;1.15;;;;;;;14.58;100.00;100568.16;4960815;28;20185;-75
2021/10/02 01:21:32;;;;;;;2.75;1.10;;;;;;;14.71;100.00;100572.84;4957633;28;20225;-75
2021/10/02 01:24:33;;;;;;;2.65;1.20;;;;;;;14.71;100.00;100561.91;4916110;29;20709;-76
2021/10/02 01:27:15;;;;;;;3.17;1.20;;;;;;;14.74;100.00;100566.75;4914762;29;20807;-75
2021/10/02 01:29:43;;;;;;;2.15;0.98;;;;;;;14.68;100.00;100567.97;4982043;28;20607;-73
2021/10/02 01:32:22;;;;;;;2.47;1.00;;;;;;;14.77;100.00;100552.47;4962197;28;20723;-75
2021/10/02 01:48:20;;;;;;;1.43;0.97;;;;;;;14.66;100.00;100548.31;4968523;28;20193;-75
2021/10/02 01:50:51;;;;;;;1.98;0.88;;;;;;;14.66;100.00;100551.03;4961634;28;20233;-76
2021/10/02 01:53:17;;;;;;;1.63;0.95;;;;;;;14.76;100.00;100545.38;4955058;28;20225;-76
2021/10/02 01:55:42;;;;;;;2.10;0.93;;;;;;;14.66;100.00;100551.84;4938083;28;20225;-76
2021/10/02 01:58:13;;;;;;;2.08;1.38;;;;;;;14.70;100.00;100547.38;4960137;28;20200;-76
2021/10/02 02:00:41;;;;;;;1.75;1.10;;;;;;;14.58;100.00;100542.72;4976788;28;20228;-75
2021/10/02 02:03:07;;;;;;;3.05;1.23;;;;;;;14.47;100.00;100539.38;4975626;28;20224;-76
2021/10/02 02:05:35;;;;;;;2.25;1.10;;;;;;;14.58;100.00;100553.66;4957961;28;20221;-76
2021/10/02 02:08:07;;;;;;;2.20;1.25;;;;;;;14.60;100.00;100546.78;4959538;28;20206;-76
2021/10/02 02:10:33;;;;;;;1.50;1.10;;;;;;;14.59;100.00;100549.81;4960880;28;20221;-75
2021/10/02 02:13:02;;;;;;;2.97;1.08;;;;;;;14.54;100.00;100548.00;4976949;28;20192;-76
2021/10/02 02:15:27;;;;;;;1.60;0.95;;;;;;;14.49;100.00;100553.53;4958306;28;20267;-75
2021/10/02 02:17:57;;;;;;;2.20;1.10;;;;;;;14.56;100.00;100545.78;4926622;28;20671;-75
2021/10/02 02:20:32;;;;;;;2.72;1.10;;;;;;;14.57;100.00;100541.91;4963607;28;20225;-75
2021/10/02 02:23:00;;;;;;;1.83;1.40;;;;;;;14.49;100.00;100550.81;4966892;28;20693;-76
2021/10/02 02:25:26;;;;;;;2.03;1.08;;;;;;;14.49;100.00;100548.06;4947549;28;20268;-76
2021/10/02 02:27:52;;;;;;;2.03;1.15;;;;;;;14.45;100.00;100549.78;4945824;28;20268;-75
2021/10/02 02:30:20;;;;;;;3.80;1.23;;;;;;;14.66;100.00;100556.50;4977369;28;20212;-75
2021/10/02 02:32:46;;;;;;;1.75;1.00;;;;;;;14.66;100.00;100551.84;4978777;28;20293;-75
2021/10/02 02:35:13;;;;;;;1.67;1.00;;;;;;;14.69;100.00;100544.97;4975499;28;20670;-75
2021/10/02 02:37:42;;;;;;;1.50;1.10;;;;;;;14.70;100.00;100552.06;4996432;28;20542;-75
2021/10/02 02:40:07;;;;;;;2.13;1.43;;;;;;;14.68;100.00;100540.63;4966815;28;20288;-74
2021/10/02 02:42:33;;;;;;;3.63;1.00;;;;;;;14.40;100.00;100547.13;4977083;28;20706;-75
2021/10/02 02:45:03;;;;;;;1.33;1.00;;;;;;;14.39;100.00;100550.16;4956278;28;20660;-75
2021/10/02 02:47:32;;;;;;;3.00;1.13;;;;;;;14.35;100.00;100549.94;4979328;28;20221;-75
2021/10/02 02:50:13;;;;;;;1.63;0.98;;;;;;;14.54;100.00;100548.00;4957702;28;20222;-75
2021/10/02 02:52:44;;;;;;;1.40;1.25;;;;;;;14.42;100.00;100544.91;4942477;28;20214;-75
2021/10/02 02:55:12;;;;;;;2.53;1.42;;;;;;;14.44;100.00;100548.16;4987625;28;20654;-75
2021/10/02 02:57:42;;;;;;;3.75;1.55;;;;;;;14.29;100.00;100545.69;4979706;28;20189;-75
2021/10/02 03:00:13;;;;;;;2.78;1.15;;;;;;;14.31;100.00;100546.19;4957020;28;20253;-76
2021/10/02 03:03:01;;;;;;;2.38;1.50;;;;;;;14.22;100.00;100544.44;4941265;28;20242;-75
2021/10/02 03:05:28;;;;;;;3.00;1.40;;;;;;;14.20;100.00;100554.06;4956487;28;20619;-76
2021/10/02 03:08:00;;;;;;;1.73;1.30;;;;;;;14.17;100.00;100541.78;4996427;28;20188;-75
2021/10/02 03:10:25;;;;;;;1.98;1.48;;;;;;;14.04;100.00;100552.69;4951969;28;20213;-76
2021/10/02 03:12:54;;;;;;;3.25;1.35;;;;;;;14.05;100.00;100543.38;4944596;28;20170;-76
2021/10/02 03:15:19;;;;;;;1.50;1.30;;;;;;;13.97;100.00;100539.38;4970098;28;20227;-76
2021/10/02 03:17:49;;;;;;;4.03;1.43;;;;;;;14.05;100.00;100537.94;4980285;28;20230;-75
2021/10/02 03:20:21;;;;;;;2.87;1.70;;;;;;;14.09;100.00;100536.22;4967123;28;20213;-75
2021/10/02 03:22:50;;;;;;;1.88;1.30;;;;;;;14.02;100.00;100538.50;4930087;28;20245;-75
2021/10/02 03:25:20;;;;;;;2.63;1.43;;;;;;;14.00;100.00;100535.22;4954307;28;20182;-75
2021/10/02 03:27:48;;;;;;;2.17;1.40;;;;;;;13.97;100.00;100533.09;4959903;28;20200;-75
2021/10/02 03:30:18;;;;;;;3.47;1.65;;;;;;;14.02;100.00;100535.78;4966922;28;20197;-76
2021/10/02 03:32:48;;;;;;;3.47;1.97;;;;;;;13.87;100.00;100535.97;4963535;28;20677;-76
2021/10/02 03:35:14;;;;;;;2.33;1.37;;;;;;;13.78;100.00;100529.56;4956955;28;20177;-75
2021/10/02 03:37:40;;;;;;;2.20;1.47;;;;;;;13.80;100.00;100532.00;4960192;28;20179;-75
2021/10/02 03:40:06;;;;;;;2.72;1.40;;;;;;;13.80;100.00;100527.34;4965327;28;20193;-75
2021/10/02 03:42:43;;;;;;;2.38;1.55;;;;;;;13.89;100.00;100522.84;4978915;28;20315;-76
2021/10/02 03:45:09;;;;;;;2.78;1.63;;;;;;;13.97;100.00;100522.16;4959388;28;20187;-75
2021/10/02 03:47:42;;;;;;;3.03;1.70;;;;;;;13.92;100.00;100522.25;4961499;28;20217;-76
2021/10/02 03:50:10;;;;;;;2.17;1.60;;;;;;;13.99;100.00;100514.47;4944702;28;20206;-75
2021/10/02 03:52:36;;;;;;;2.93;1.87;;;;;;;14.05;100.00;100521.53;4944067;28;20188;-76
2021/10/02 03:55:07;;;;;;;3.67;1.60;;;;;;;13.91;100.00;100509.69;4962640;28;20192;-75
2021/10/02 03:57:35;;;;;;;3.23;2.00;;;;;;;13.82;100.00;100506.81;4978873;28;20186;-75
2021/10/02 04:00:03;;;;;;;3.57;2.00;;;;;;;13.83;100.00;100515.84;4993314;28;20207;-76
2021/10/02 04:02:30;;;;;;;4.10;1.90;;;;;;;13.80;100.00;100519.16;4959278;28;20226;-76
2021/10/02 04:04:56;;;;;;;3.90;2.20;;;;;;;13.86;100.00;100520.69;4959690;28;20709;-76
2021/10/02 04:07:23;;;;;;;2.40;1.70;;;;;;;13.84;100.00;100509.25;4978340;28;20224;-76
2021/10/02 04:09:51;;;;;;;3.40;2.20;;;;;;;13.77;100.00;100508.81;4995252;28;20674;-76
2021/10/02 04:12:20;;;;;;;2.17;1.70;;;;;;;13.72;100.00;100510.84;4975691;28;20256;-76
2021/10/02 04:14:48;;;;;;;4.00;1.93;;;;;;;13.74;100.00;100520.34;4943176;28;20652;-76
2021/10/02 04:17:17;;;;;;;2.30;2.07;;;;;;;13.73;100.00;100517.91;4976458;28;20220;-75
2021/10/02 04:19:45;;;;;;;2.63;1.80;;;;;;;13.67;100.00;100517.16;4978899;28;20201;-76
2021/10/02 04:22:11;;;;;;;3.97;2.30;;;;;;;13.61;100.00;100510.16;4961649;28;20225;-76
2021/10/02 04:24:42;;;;;;;4.63;2.03;;;;;;;13.64;100.00;100515.03;4975555;28;20602;-76
2021/10/02 04:27:12;;;;;;;3.53;2.20;;;;;;;13.67;100.00;100519.09;4978368;28;20308;-76
2021/10/02 04:29:38;;;;;;;3.43;2.03;;;;;;;13.68;100.00;100516.06;4975439;28;20201;-76
2021/10/02 04:32:04;;;;;;;3.60;2.20;;;;;;;13.71;100.00;100520.94;4974896;28;20244;-76
2021/10/02 04:34:29;;;;;;;4.87;2.10;;;;;;;13.73;100.00;100524.16;4943179;28;20189;-75
2021/10/02 04:37:03;;;;;;;4.27;2.33;;;;;;;13.76;100.00;100520.84;4971581;28;20220;-76
2021/10/02 04:39:29;;;;;;;3.93;2.30;;;;;;;13.68;100.00;100527.00;4994031;28;20216;-75
2021/10/02 04:42:00;;;;;;;5.03;3.10;;;;;;;13.79;100.00;100522.19;4965940;28;20232;-76
2021/10/02 04:44:26;;;;;;;5.10;3.40;;;;;;;13.83;100.00;100518.56;4960067;28;20667;-75
2021/10/02 04:46:52;;;;;;;4.70;2.30;;;;;;;13.87;100.00;100519.59;4952370;28;20221;-76
2021/10/02 04:49:17;;;;;;;3.90;2.07;;;;;;;13.90;100.00;100525.28;4978033;28;20212;-75
2021/10/02 04:51:43;;;;;;;2.80;1.90;;;;;;;13.67;100.00;100519.09;4984487;28;20217;-76
2021/10/02 04:54:13;;;;;;;3.17;2.00;;;;;;;13.76;100.00;100515.41;4941946;28;20536;-75
2021/10/02 04:56:39;;;;;;;4.93;2.10;;;;;;;13.59;100.00;100526.03;4942801;28;20240;-74
2021/10/02 04:59:04;;;;;;;3.77;2.20;;;;;;;13.51;100.00;100521.22;4974175;28;20655;-75
2021/10/02 05:01:30;;;;;;;2.67;2.10;;;;;;;13.47;100.00;100522.91;4963555;28;20225;-75
2021/10/02 05:03:59;;;;;;;4.27;2.30;;;;;;;13.45;100.00;100516.94;4978264;28;20216;-76
2021/10/02 05:06:25;;;;;;;4.37;2.10;;;;;;;13.48;100.00;100524.56;4972932;28;20701;-75
2021/10/02 05:08:53;;;;;;;3.00;2.47;;;;;;;13.58;100.00;100524.41;4943060;28;20189;-75
2021/10/02 05:11:22;;;;;;;4.20;2.50;;;;;;;13.56;100.00;100523.88;4958510;28;20652;-75
2021/10/02 05:13:50;;;;;;;3.83;2.87;;;;;;;13.54;100.00;100520.63;4942428;28;20185;-75
2021/10/02 05:16:15;;;;;;;4.83;2.97;;;;;;;13.60;100.00;100511.25;4938946;28;20210;-75
2021/10/02 05:18:43;;;;;;;3.77;2.60;;;;;;;13.72;100.00;100517.09;4920470;28;20190;-75
2021/10/02 05:21:13;;;;;;;2.70;2.50;;;;;;;13.60;100.00;100514.00;4963871;28;20217;-75
2021/10/02 05:23:39;;;;;;;3.60;2.90;;;;;;;13.71;100.00;100510.00;4963297;28;20593;-75
2021/10/02 05:26:09;;;;;;;4.03;2.73;;;;;;;13.71;100.00;100509.22;4993236;28;20225;-75
2021/10/02 05:28:37;;;;;;;6.57;2.80;;;;;;;13.58;100.00;100510.75;4953198;28;20297;-75
2021/10/02 05:31:05;;;;;;;4.73;2.50;;;;;;;13.65;100.00;100505.75;4953312;28;20287;-75
2021/10/02 05:33:33;;;;;;;3.23;2.50;;;;;;;13.71;100.00;100507.28;4989655;28;20628;-74
2021/10/02 05:35:59;;;;;;;4.63;2.40;;;;;;;13.76;100.00;100507.22;4952606;28;20226;-74
2021/10/02 05:38:27;;;;;;;4.57;2.50;;;;;;;13.68;100.00;100505.16;4955622;28;20862;-75
2021/10/02 05:40:55;;;;;;;4.53;2.50;;;;;;;13.64;100.00;100515.03;4973757;28;20646;-75
2021/10/02 05:43:23;;;;;;;3.47;2.53;;;;;;;13.68;100.00;100516.06;4957384;28;20666;-75
2021/10/02 05:45:51;;;;;;;4.20;2.50;;;;;;;13.67;100.00;100517.16;4993099;28;20278;-75
2021/10/02 05:48:21;;;;;;;3.07;2.40;;;;;;;13.65;100.00;100529.50;4963863;28;20205;-75
2021/10/02 05:50:47;;;;;;;3.23;2.40;;;;;;;13.49;100.00;100528.88;4957597;28;20268;-76
2021/10/02 05:53:15;;;;;;;4.07;2.27;;;;;;;13.53;100.00;100526.38;4955612;28;20192;-75
2021/10/02 05:55:46;;;;;;;2.83;2.30;;;;;;;13.50;100.00;100524.25;4981353;28;20241;-76
2021/10/02 05:58:11;;;;;;;3.37;1.80;;;;;;;13.56;100.00;100517.63;4985544;28;20186;-74
2021/10/02 06:00:39;;;;;;;4.87;2.30;;;;;;;13.63;100.00;100529.78;4958993;28;20249;-75
2021/10/02 06:03:05;;;;;;;3.37;2.17;;;;;;;13.74;100.00;100530.47;4961717;28;20216;-75
2021/10/02 06:05:30;;;;;;;2.20;2.00;;;;;;;13.60;100.00;100530.38;4959550;28;20591;-75
2021/10/02 06:07:58;;;;;;;4.40;2.40;;;;;;;13.60;100.00;100535.03;4941870;28;20252;-75
2021/10/02 06:10:31;;;;;;;5.47;2.30;;;;;;;13.56;100.00;100529.34;4953987;28;20770;-76
2021/10/02 06:12:59;;;;;;;2.73;2.30;;;;;;;13.46;100.00;100525.97;4962990;28;20655;-75
2021/10/02 06:15:29;;;;;;;3.50;2.23;;;;;;;13.57;100.00;100536.44;4960920;28;20291;-75
2021/10/02 06:17:57;;;;;;;3.83;2.37;;;;;;;13.48;100.00;100527.28;4961859;28;20276;-74
2021/10/02 06:20:24;;;;;;;4.73;2.60;;;;;;;13.42;100.00;100532.28;4944969;28;20206;-75
2021/10/02 06:22:51;;;;;;;3.20;2.47;;;;;;;13.53;100.00;100540.03;4963108;28;20213;-77
2021/10/02 06:25:19;;;;;;;3.50;2.30;;;;;;;13.54;100.00;100542.47;4962408;28;20697;-76
2021/10/02 06:27:44;;;;;;;3.57;2.80;;;;;;;13.51;100.00;100528.59;4956521;28;20197;-75
2021/10/02 06:30:12;;;;;;;4.43;2.83;;;;;;;13.52;100.00;100532.97;4965331;28;20212;-77
2021/10/02 06:32:38;;;;;;;3.23;2.80;;;;;;;13.63;100.00;100545.38;4968081;28;20178;-77
2021/10/02 06:35:06;;;;;;;4.63;2.97;;;;;;;13.67;100.00;100547.19;4978822;28;20663;-76
2021/10/02 06:37:34;;;;;;;3.17;2.70;;;;;;;13.59;100.00;100541.59;4980531;28;20192;-78
2021/10/02 06:40:01;;;;;;;3.50;3.00;;;;;;;13.72;100.00;100543.59;4960576;28;20304;-78
2021/10/02 06:42:29;;;;;;;3.70;2.90;;;;;;;13.73;100.00;100551.47;4964180;28;20218;-75
2021/10/02 06:44:57;;;;;;;3.57;2.97;;;;;;;13.76;100.00;100555.56;4978152;28;20725;-76
2021/10/02 06:47:27;;;;;;;4.73;2.90;;;;;;;13.76;100.00;100545.44;4961920;28;20217;-76
2021/10/02 06:49:58;;;;;;;4.53;2.80;;;;;;;13.79;100.00;100547.59;4965290;28;20217;-77
2021/10/02 06:52:26;;;;;;;3.10;2.80;;;;;;;13.94;100.00;100547.34;4946881;28;20236;-75
2021/10/02 06:54:57;;;;;;;4.70;2.80;;;;;;;13.89;100.00;100552.88;4960517;28;20185;-76
2021/10/02 06:57:22;;;;;;;3.57;2.90;;;;;;;13.75;100.00;100551.19;4959704;28;20224;-75
2021/10/02 06:59:48;;;;;;;3.43;3.03;;;;;;;13.60;100.00;100551.41;4928684;28;20202;-75
2021/10/02 07:02:14;;;;;;;4.20;3.10;;;;;;;13.73;100.00;100548.75;4943644;28;20218;-75
2021/10/02 07:04:42;;;;;;;4.50;2.83;;;;;;;13.73;100.00;100556.13;4976764;28;20201;-75
2021/10/02 07:07:08;;;;;;;3.85;2.80;;;;;;;13.82;100.00;100546.97;4953471;28;20249;-74
2021/10/02 07:09:34;;;;;;;4.68;2.90;;;;;;;13.90;100.00;100546.31;4938318;28;20198;-75
2021/10/02 07:12:00;;;;;;;3.20;2.70;;;;;;;13.93;100.00;100548.44;4967936;28;20226;-75
2021/10/02 07:14:26;;;;;;;4.43;2.87;;;;;;;13.91;100.00;100543.28;4941634;28;20217;-75
2021/10/02 07:16:54;;;;;;;4.87;3.07;;;;;;;13.93;100.00;100540.25;4956984;28;20226;-75
2021/10/02 07:19:19;;;;;;;4.33;2.70;;;;;;;14.06;100.00;100534.06;4924027;28;20897;-75
2021/10/02 07:21:45;;;;;;;5.20;3.40;;;;;;;14.21;100.00;100542.00;4956528;28;20229;-75
2021/10/02 07:24:13;;;;;;;4.73;3.33;;;;;;;14.20;100.00;100551.34;4957573;28;20229;-76
2021/10/02 07:26:39;;;;;;;3.07;2.60;;;;;;;14.06;100.00;100567.66;4941906;28;20241;-75
2021/10/02 07:29:05;;;;;;;4.43;2.70;;;;;;;14.09;100.00;100563.53;4913681;28;20193;-75
2021/10/02 07:31:33;;;;;;;3.83;2.77;;;;;;;14.14;100.00;100549.78;4940685;28;20308;-76
2021/10/02 07:34:00;;;;;;;4.30;3.10;;;;;;;14.17;100.00;100549.19;4945619;28;20178;-76
2021/10/02 07:36:28;;;;;;;5.43;2.97;;;;;;;14.20;100.00;100554.06;4957196;28;20234;-74
2021/10/02 07:39:01;;;;;;;3.30;3.00;;;;;;;14.13;100.00;100556.34;4955477;28;20723;-75
2021/10/02 07:41:32;;;;;;;5.20;2.70;;;;;;;14.14;100.00;100552.50;4939301;28;20222;-76
2021/10/02 07:44:00;;;;;;;5.73;2.43;;;;;;;14.19;100.00;100555.16;4940529;28;20210;-75
2021/10/02 07:46:32;;;;;;;5.23;2.77;;;;;;;14.23;100.00;100550.72;4938498;28;20233;-75
2021/10/02 07:48:57;;;;;;;4.10;2.80;;;;;;;14.32;100.00;100552.47;4927991;28;20189;-77
2021/10/02 07:51:25;;;;;;;4.18;3.70;;;;;;;14.26;100.00;100549.00;4957749;28;20214;-75
2021/10/02 07:53:52;;;;;;;3.63;2.65;;;;;;;14.44;100.00;100539.97;4957066;28;20166;-75
2021/10/02 07:56:20;;;;;;;4.43;3.20;;;;;;;14.59;100.00;100536.94;4922594;28;20260;-74
2021/10/02 07:58:49;;;;;;;4.73;3.00;;;;;;;14.56;100.00;100539.47;4956469;28;20589;-75
2021/10/02 08:01:15;;;;;;;3.40;3.03;;;;;;;14.65;100.00;100543.94;4942863;28;20593;-75
2021/10/02 08:03:41;;;;;;;6.40;3.60;;;;;;;14.58;100.00;100549.00;4943757;28;20210;-75
2021/10/02 08:06:09;;;;;;;5.15;3.22;;;;;;;14.62;100.00;100549.22;4936446;29;20777;-74
2021/10/02 08:08:37;;;;;;;4.93;3.10;;;;;;;14.64;100.00;100537.66;4953101;28;20187;-75
2021/10/02 08:11:04;;;;;;;5.47;3.57;;;;;;;14.84;100.00;100520.09;4956875;28;20225;-75
2021/10/02 08:13:33;;;;;;;6.53;3.73;;;;;;;14.89;100.00;100529.00;4959268;28;20207;-75
2021/10/02 08:15:59;;;;;;;4.60;3.60;;;;;;;14.94;100.00;100536.28;4941921;28;20283;-74
2021/10/02 08:18:26;;;;;;;5.03;3.70;;;;;;;14.99;100.00;100536.19;4923853;28;20186;-75
2021/10/02 08:20:58;;;;;;;5.23;4.20;;;;;;;14.81;100.00;100531.63;4938597;28;20233;-75
2021/10/02 08:23:28;;;;;;;7.10;4.23;;;;;;;14.92;100.00;100522.09;4992351;28;20222;-75
2021/10/02 08:25:56;;;;;;;4.90;3.63;;;;;;;15.05;100.00;100522.94;4944440;28;20226;-74
2021/10/02 08:28:24;;;;;;;6.95;4.22;;;;;;;15.03;100.00;100519.66;4924021;28;20181;-74
2021/10/02 08:30:50;;;;;;;7.18;4.13;;;;;;;14.90;100.00;100513.41;4936060;28;20292;-74
2021/10/02 08:33:16;;;;;;;6.15;3.90;;;;;;;14.94;100.00;100509.72;4942636;28;20394;-74
2021/10/02 08:35:44;;;;;;;4.93;3.58;;;;;;;15.03;100.00;100516.91;4947384;28;20222;-74
2021/10/02 08:38:14;;;;;;;6.93;3.87;;;;;;;15.17;100.00;100515.03;4939641;28;20273;-74
2021/10/02 08:40:42;;;;;;;4.90;3.53;;;;;;;15.19;100.00;100518.28;4949163;28;20702;-75
2021/10/02 08:43:12;;;;;;;6.03;3.40;;;;;;;15.51;100.00;100518.94;4942738;28;20248;-75
2021/10/02 08:45:40;;;;;;;5.25;3.70;;;;;;;15.64;100.00;100525.47;4948819;28;20242;-74
2021/10/02 08:48:06;;;;;;;5.75;3.30;;;;;;;15.64;100.00;100525.47;4923384;28;20241;-74
2021/10/02 08:50:32;;;;;;;5.57;3.58;;;;;;;15.68;100.00;100526.50;4946553;28;20279;-76
2021/10/02 08:52:58;;;;;;;4.75;3.65;;;;;;;15.73;100.00;100537.34;4974723;28;20536;-74
2021/10/02 08:55:26;;;;;;;5.50;3.88;;;;;;;15.85;100.00;100532.94;4968065;28;20545;-74
2021/10/02 08:57:54;;;;;;;6.30;3.90;;;;;;;16.06;100.00;100532.16;4939460;28;20185;-75
2021/10/02 09:00:22;;;;;;;5.80;4.15;;;;;;;16.11;100.00;100525.72;4921278;28;20324;-75
2021/10/02 09:02:48;;;;;;;5.22;4.03;;;;;;;15.97;100.00;100525.81;4936867;29;20210;-73
2021/10/02 09:05:17;;;;;;;5.07;3.83;;;;;;;15.92;100.00;100523.16;4943325;28;20326;-74
2021/10/02 09:07:42;;;;;;;5.90;3.88;;;;;;;15.93;100.00;100524.81;4927700;29;20186;-75
2021/10/02 09:10:09;;;;;;;5.05;3.92;;;;;;;16.11;100.00;100521.06;4940004;28;20198;-74
2021/10/02 09:12:36;;;;;;;4.38;3.65;;;;;;;16.00;100.00;100519.69;4959797;28;20178;-74
2021/10/02 09:15:03;;;;;;;4.57;3.80;;;;;;;15.81;100.00;100518.25;4976074;28;20213;-78
2021/10/02 09:17:31;;;;;;;4.53;3.63;;;;;;;15.94;100.00;100523.66;4958925;28;20229;-75
2021/10/02 09:20:00;;;;;;;4.43;4.03;;;;;;;16.24;100.00;100525.69;4975593;28;20197;-75
2021/10/02 09:22:25;;;;;;;5.43;4.07;;;;;;;16.31;100.00;100528.81;4923961;28;20292;-75
2021/10/02 09:24:55;;;;;;;5.43;4.10;;;;;;;16.35;100.00;100525.13;4955179;28;20652;-75
2021/10/02 09:27:31;;;;;;;5.60;4.00;;;;;;;16.42;100.00;100510.97;4968910;28;20210;-75
2021/10/02 09:30:11;;;;;;;5.28;4.00;;;;;;;16.60;100.00;100508.81;4961376;28;20600;-74
2021/10/02 09:32:44;;;;;;;5.05;4.35;;;;;;;16.78;100.00;100505.03;4963744;28;20209;-75
2021/10/02 09:35:19;;;;;;;4.22;3.83;;;;;;;16.76;100.00;100499.06;4946271;28;20853;-75
2021/10/02 09:37:46;;;;;;;5.57;4.20;;;;;;;16.73;100.00;100496.16;4958936;28;20227;-75
2021/10/02 09:40:22;;;;;;;6.35;4.30;;;;;;;16.73;100.00;100498.88;4926371;28;20751;-74
2021/10/02 09:42:50;;;;;;;7.05;4.85;;;;;;;16.56;100.00;100503.50;4965237;28;20208;-74
2021/10/02 09:45:21;;;;;;;6.18;4.40;;;;;;;16.64;100.00;100504.31;4981198;28;20673;-75
2021/10/02 09:47:54;;;;;;;6.32;4.90;;;;;;;16.68;100.00;100508.06;4946912;28;20201;-75
2021/10/02 09:50:23;;;;;;;6.38;5.18;;;;;;;16.47;100.00;100502.63;4961291;28;20225;-74
2021/10/02 09:52:56;;;;;;;6.00;5.38;;;;;;;16.58;100.00;100499.31;4961641;28;20679;-75
2021/10/02 09:55:29;;;;;;;6.95;5.20;;;;;;;16.38;100.00;100493.53;4947015;28;20193;-74
2021/10/02 09:58:08;;;;;;;7.38;5.55;;;;;;;16.22;100.00;100500.53;4947700;28;20193;-74
2021/10/02 10:00:40;;;;;;;6.85;5.85;;;;;;;16.31;100.00;100493.16;4980946;28;20694;-75
2021/10/02 10:03:07;;;;;;;6.40;5.18;;;;;;;16.55;100.00;100493.63;4959309;28;20210;-74
2021/10/02 10:05:35;;;;;;;6.13;5.53;;;;;;;16.45;100.00;100491.97;4926004;28;20268;-75
2021/10/02 10:08:03;;;;;;;6.00;5.40;;;;;;;16.66;100.00;100490.28;4962441;28;20717;-75
2021/10/02 10:10:29;;;;;;;6.65;5.78;;;;;;;16.60;100.00;100492.38;4980706;28;20228;-74
2021/10/02 10:12:55;;;;;;;6.03;4.97;;;;;;;16.70;100.00;100491.28;4958001;28;20277;-75
2021/10/02 10:15:30;;;;;;;6.13;5.53;;;;;;;16.51;100.00;100482.47;4974083;28;20653;-75
2021/10/02 10:17:59;;;;;;;5.93;5.32;;;;;;;16.47;100.00;100486.19;4960747;28;20192;-74
2021/10/02 10:20:38;;;;;;;6.15;5.20;;;;;;;16.71;100.00;100477.25;4979263;28;20201;-75
2021/10/02 10:23:05;;;;;;;5.93;4.95;;;;;;;16.87;100.00;100481.19;4946961;28;20623;-74
2021/10/02 10:25:31;;;;;;;5.90;5.30;;;;;;;16.73;100.00;100477.75;4977696;28;20279;-75
2021/10/02 10:28:01;;;;;;;5.20;4.70;;;;;;;17.14;100.00;100483.69;4961646;28;20378;-75
2021/10/02 10:30:27;;;;;;;4.93;4.43;;;;;;;16.78;100.00;100480.34;4929750;28;20237;-75
2021/10/02 10:33:06;;;;;;;5.43;4.38;;;;;;;16.81;100.00;100479.72;4974616;28;20208;-75
2021/10/02 10:35:33;;;;;;;6.60;5.07;;;;;;;16.86;100.00;100473.28;4948981;28;20652;-75
2021/10/02 10:38:01;;;;;;;5.88;5.05;;;;;;;16.82;100.00;100473.09;4967331;28;20186;-75
2021/10/02 10:40:27;;;;;;;5.10;4.57;;;;;;;16.86;100.00;100474.06;4961392;28;20257;-75
2021/10/02 10:42:55;;;;;;;5.13;4.63;;;;;;;16.82;100.00;100464.06;4957414;28;20193;-73
2021/10/02 10:45:23;;;;;;;4.50;4.00;;;;;;;16.70;100.00;100475.66;4963838;28;20185;-75
2021/10/02 10:47:49;;;;;;;3.72;3.38;;;;;;;16.65;100.00;100481.25;4970025;28;20260;-75
2021/10/02 10:50:15;;;;;;;3.95;3.55;;;;;;;16.72;100.00;100478.06;4960339;28;20746;-74
2021/10/02 10:52:41;;;;;;;6.88;3.58;;;;;;;16.84;100.00;100467.31;4993216;28;20669;-76
2021/10/02 10:55:33;;;;;;;4.60;3.58;;;;;;;16.93;100.00;100477.19;4979912;28;20242;-74
2021/10/02 10:58:01;;;;;;;5.78;3.70;;;;;;;16.64;100.00;100470.59;4972605;28;20197;-76
2021/10/02 11:00:31;;;;;;;4.55;3.33;;;;;;;16.56;100.00;100480.41;4960147;28;20208;-74
2021/10/02 11:03:03;;;;;;;3.70;3.38;;;;;;;16.45;100.00;100477.47;4986507;28;20216;-74
2021/10/02 11:05:35;;;;;;;3.53;3.03;;;;;;;16.59;100.00;100474.31;4951650;28;20612;-76
2021/10/02 11:08:10;;;;;;;4.57;3.20;;;;;;;16.40;100.00;100467.41;4975478;28;20197;-73
2021/10/02 11:10:42;;;;;;;3.53;2.80;;;;;;;16.36;100.00;100471.13;4953009;28;20249;-74
2021/10/02 11:13:16;;;;;;;4.20;3.35;;;;;;;16.61;100.00;100469.31;4976837;28;20218;-73
2021/10/02 11:15:44;;;;;;;3.60;3.22;;;;;;;16.57;100.00;100462.84;4976502;28;20308;-71
2021/10/02 11:18:46;;;;;;;3.45;3.00;;;;;;;16.48;100.00;100460.34;4986514;28;20173;-74
2021/10/02 11:21:15;;;;;;;3.95;2.88;;;;;;;16.64;100.00;100463.19;4979889;28;20228;-76
2021/10/02 11:23:50;;;;;;;4.90;3.22;;;;;;;16.89;100.00;100465.22;4969897;28;20943;-74
2021/10/02 11:26:37;;;;;;;2.85;2.50;;;;;;;16.69;100.00;100474.00;4975478;28;20718;-75
2021/10/02 11:29:02;;;;;;;2.78;2.50;;;;;;;16.72;100.00;100467.91;5009134;28;20195;-75
2021/10/02 11:31:34;;;;;;;3.40;2.80;;;;;;;16.71;100.00;100458.03;4996713;28;20695;-74
2021/10/02 11:34:00;;;;;;;2.78;2.47;;;;;;;16.57;100.00;100453.78;4999148;28;20244;-75
2021/10/02 11:36:31;;;;;;;2.95;2.53;;;;;;;16.57;100.00;100454.63;4959826;28;20214;-73
2021/10/02 11:39:22;;;;;;;3.78;2.30;;;;;;;16.38;100.00;100460.66;4993712;28;20196;-75
2021/10/02 11:41:54;;;;;;;3.67;2.70;;;;;;;16.43;100.00;100452.28;4968369;28;20217;-74
2021/10/02 11:44:49;;;;;;;3.15;2.50;;;;;;;16.65;100.00;100444.81;4958459;28;20214;-73
2021/10/02 11:47:36;;;;;;;2.15;1.95;;;;;;;16.81;100.00;100435.84;4981271;28;20229;-75
2021/10/02 11:50:07;;;;;;;2.40;2.05;;;;;;;16.99;100.00;100423.75;4927189;28;20313;-74
2021/10/02 11:52:53;;;;;;;2.83;2.10;;;;;;;17.54;100.00;100415.44;4939351;28;20313;-75
2021/10/02 11:55:36;;;;;;;2.45;1.77;;;;;;;17.92;100.00;100411.69;4975385;28;20197;-73
2021/10/02 11:58:13;;;;;;;1.98;1.40;;;;;;;18.00;100.00;100407.31;4990301;28;20245;-75
2021/10/02 12:00:44;;;;;;;2.38;1.40;;;;;;;18.08;100.00;100406.50;4973249;28;20308;-75
2021/10/02 12:03:14;;;;;;;3.40;1.50;;;;;;;18.23;100.00;100415.84;4943685;28;20220;-74
2021/10/02 12:05:43;;;;;;;1.58;1.40;;;;;;;18.15;100.00;100416.69;4974748;28;20285;-74
2021/10/02 12:08:13;;;;;;;4.13;1.70;;;;;;;17.98;100.00;100431.56;4973322;28;20190;-75
2021/10/02 12:11:11;;;;;;;1.52;1.27;;;;;;;17.99;100.00;100428.50;4929071;28;20726;-75
2021/10/02 12:13:42;;;;;;;2.42;1.58;;;;;;;17.77;100.00;100430.63;4976816;28;20219;-73
2021/10/02 12:16:10;;;;;;;1.95;1.48;;;;;;;17.51;100.00;100421.59;4994172;28;20248;-74
2021/10/02 12:18:58;;;;;;;2.75;1.50;;;;;;;17.34;100.00;100423.50;4990029;28;20193;-74
2021/10/02 12:21:23;;;;;;;1.85;1.38;;;;;;;17.20;100.00;100419.31;4960211;28;20662;-74
2021/10/02 12:23:49;;;;;;;2.25;1.50;;;;;;;17.21;100.00;100416.22;4998682;28;20304;-75